Time;durP1;ratioP1;P1;durP2;ratioP2;P2;SDS_P1;SDS_P2;PMS_P1;PMS_P2;Temp;Humidity;BMP_temperature;BMP_pressure;BME280_temperature;BME280_humidity;BME280_pressure;Samples;Min_cycle;Max_cycle;Signal;HPM_P1;HPM_P2
2023/01/11 00:00:45;;;;;;;7.78;1.90;;;26.60;96.70;;;;;;5083377;28;20546;-79
2023/01/11 00:03:12;;;;;;;7.05;1.70;;;26.60;96.20;;;;;;5079448;28;21738;-83
2023/01/11 00:05:43;;;;;;;7.43;1.55;;;26.40;96.00;;;;;;5078729;28;20392;-78
2023/01/11 00:08:10;;;;;;;8.75;1.80;;;26.30;96.80;;;;;;5090899;28;20474;-81
2023/01/11 00:10:37;;;;;;;9.65;1.90;;;26.00;97.30;;;;;;5081226;28;20407;-86
2023/01/11 00:13:05;;;;;;;6.53;1.80;;;26.00;97.40;;;;;;5087924;28;20388;-84
2023/01/11 00:15:33;;;;;;;6.82;1.60;;;26.10;97.30;;;;;;5081924;28;20391;-84
2023/01/11 00:18:01;;;;;;;30.17;3.03;;;26.10;97.50;;;;;;5087873;28;20444;-86
2023/01/11 00:20:28;;;;;;;6.03;1.67;;;26.20;97.20;;;;;;5081281;28;20392;-77
2023/01/11 00:22:55;;;;;;;7.85;1.70;;;26.20;96.50;;;;;;5087946;28;20456;-78
2023/01/11 00:25:22;;;;;;;8.55;1.83;;;25.90;97.10;;;;;;5082679;28;20880;-82
2023/01/11 00:27:49;;;;;;;9.88;1.83;;;25.90;97.00;;;;;;5075440;28;20435;-86
2023/01/11 00:30:17;;;;;;;5.80;1.80;;;26.00;97.20;;;;;;5070736;28;20440;-77
2023/01/11 00:32:44;;;;;;;8.15;1.90;;;25.90;97.40;;;;;;5078922;28;20409;-81
2023/01/11 00:35:11;;;;;;;7.63;1.80;;;26.10;96.90;;;;;;5070444;28;20402;-80
2023/01/11 00:37:39;;;;;;;5.07;1.67;;;26.30;96.70;;;;;;5070926;28;20474;-77
2023/01/11 00:40:07;;;;;;;7.22;1.52;;;26.60;96.40;;;;;;5064304;28;20388;-77
2023/01/11 00:48:05;;;;;;;5.47;1.60;;;27.00;95.40;;;;;;5071448;28;20498;-84
2023/01/11 00:50:37;;;;;;;5.78;1.80;;;27.20;94.80;;;;;;5071465;28;20481;-84
2023/01/11 00:53:05;;;;;;;7.03;1.60;;;27.50;94.70;;;;;;5071021;28;20451;-87
2023/01/11 00:55:32;;;;;;;5.57;1.73;;;27.80;94.10;;;;;;5090276;28;20375;-81
2023/01/11 00:58:00;;;;;;;4.60;1.50;;;28.00;94.30;;;;;;5090782;28;20726;-82
2023/01/11 01:00:28;;;;;;;6.40;1.70;;;28.30;93.20;;;;;;5089876;28;20372;-85
2023/01/11 01:02:55;;;;;;;6.43;1.67;;;28.20;92.80;;;;;;5083039;28;20469;-88
2023/01/11 01:05:22;;;;;;;6.45;1.60;;;27.90;93.20;;;;;;5078425;28;20491;-85
2023/01/11 01:07:49;;;;;;;5.45;1.52;;;28.20;92.90;;;;;;5085554;28;20444;-85
2023/01/11 01:10:17;;;;;;;5.55;1.63;;;28.50;92.60;;;;;;5091088;28;20384;-82
2023/01/11 01:15:31;;;;;;;4.32;1.50;;;28.30;91.70;;;;;;5092303;28;20830;-90
2023/01/11 01:17:59;;;;;;;6.40;1.77;;;27.90;91.40;;;;;;5081704;28;20390;-92
2023/01/11 01:20:26;;;;;;;6.47;1.60;;;27.80;92.60;;;;;;5083863;28;20389;-87
2023/01/11 01:22:53;;;;;;;5.38;1.60;;;28.00;91.90;;;;;;5080584;28;20739;-88
2023/01/11 01:25:20;;;;;;;6.80;1.70;;;28.20;91.90;;;;;;5081111;28;20413;-84
2023/01/11 01:27:47;;;;;;;4.82;1.50;;;28.40;91.00;;;;;;5082259;28;20464;-84
2023/01/11 01:30:15;;;;;;;6.82;1.50;;;28.50;91.10;;;;;;5091003;28;20465;-86
2023/01/11 01:32:42;;;;;;;4.30;1.52;;;28.80;90.60;;;;;;5090155;28;20876;-84
2023/01/11 01:35:12;;;;;;;6.88;1.70;;;28.90;90.20;;;;;;5089903;28;20427;-84
2023/01/11 01:37:39;;;;;;;3.65;1.20;;;29.20;90.30;;;;;;5090494;28;20380;-83
2023/01/11 01:40:07;;;;;;;4.03;1.40;;;30.00;87.70;;;;;;5090873;28;20383;-82
2023/01/11 01:42:33;;;;;;;4.57;1.50;;;30.90;83.30;;;;;;5090444;28;20372;-83
2023/01/11 01:45:03;;;;;;;6.75;1.85;;;31.10;83.50;;;;;;5089620;28;20396;-83
2023/01/11 01:47:56;;;;;;;4.30;1.52;;;31.00;82.10;;;;;;5065304;28;20790;-85
2023/01/11 01:50:31;;;;;;;5.25;1.70;;;30.30;83.50;;;;;;5089784;28;20372;-84
2023/01/11 01:53:34;;;;;;;5.90;1.80;;;29.70;85.50;;;;;;5078406;28;20363;-83
2023/01/11 01:56:04;;;;;;;5.85;1.70;;;29.30;87.20;;;;;;5069921;28;20392;-84
2023/01/11 01:58:37;;;;;;;3.70;1.70;;;29.10;87.50;;;;;;5086866;28;20378;-82
2023/01/11 02:04:10;;;;;;;7.13;1.80;;;28.60;86.20;;;;;;5028924;28;20378;-85
2023/01/11 02:06:40;;;;;;;7.07;2.10;;;28.20;89.40;;;;;;5032177;28;20379;-84
2023/01/11 02:09:45;;;;;;;6.55;1.80;;;28.00;90.30;;;;;;5036323;28;20483;-82
2023/01/11 02:12:13;;;;;;;8.48;2.00;;;27.90;90.20;;;;;;5018803;28;20439;-80
2023/01/11 02:14:42;;;;;;;4.78;1.77;;;27.90;90.60;;;;;;5040869;28;20409;-80
2023/01/11 02:17:09;;;;;;;6.82;1.90;;;27.90;91.10;;;;;;5038853;28;20399;-80
2023/01/11 02:19:51;;;;;;;9.43;2.00;;;27.90;91.80;;;;;;5033039;28;20751;-82
2023/01/11 02:22:45;;;;;;;6.13;2.00;;;28.00;91.80;;;;;;5033773;28;20731;-84
2023/01/11 02:25:26;;;;;;;7.35;1.92;;;28.20;91.40;;;;;;5041572;28;20820;-84
2023/01/11 02:28:11;;;;;;;6.28;1.88;;;28.00;91.30;;;;;;5032547;28;20808;-81
2023/01/11 02:30:58;;;;;;;7.43;2.00;;;28.00;92.00;;;;;;5047485;28;20382;-82
2023/01/11 02:33:42;;;;;;;6.85;1.80;;;28.20;91.20;;;;;;5042461;28;20416;-78
2023/01/11 02:36:43;;;;;;;4.88;1.83;;;28.50;90.80;;;;;;5044875;28;20494;-83
2023/01/11 02:39:36;;;;;;;5.93;1.73;;;28.70;90.40;;;;;;5060913;28;20740;-80
2023/01/11 02:45:25;;;;;;;4.03;1.60;;;29.30;89.40;;;;;;5088456;28;20384;-79
2023/01/11 02:48:10;;;;;;;6.55;1.75;;;29.70;88.30;;;;;;5088301;28;20372;-78
2023/01/11 02:50:48;;;;;;;5.70;1.70;;;29.70;88.10;;;;;;5086206;28;20724;-79
2023/01/11 02:53:29;;;;;;;4.60;1.70;;;30.10;88.40;;;;;;5073289;28;20374;-86
2023/01/11 02:56:00;;;;;;;5.85;1.90;;;31.00;88.00;;;;;;5073644;28;20877;-84
2023/01/11 02:58:31;;;;;;;5.37;1.70;;;32.70;84.70;;;;;;5073359;28;20368;-88
2023/01/11 03:01:00;;;;;;;6.35;1.80;;;34.40;79.30;;;;;;5086455;28;20380;-81
2023/01/11 03:03:27;;;;;;;4.93;1.60;;;34.70;76.00;;;;;;5077677;28;20466;-85
2023/01/11 03:05:59;;;;;;;5.90;1.80;;;34.20;74.90;;;;;;5084205;28;20376;-80
2023/01/11 03:08:53;;;;;;;7.00;1.90;;;34.10;72.60;;;;;;5091218;28;20399;-86
2023/01/11 03:14:58;;;;;;;5.87;1.70;;;32.30;74.50;;;;;;5079663;28;20444;-90
2023/01/11 03:17:43;;;;;;;6.30;1.80;;;32.20;75.00;;;;;;5088137;28;20384;-83
2023/01/11 03:20:20;;;;;;;6.90;1.75;;;31.70;75.90;;;;;;5078583;28;20415;-78
2023/01/11 03:23:06;;;;;;;7.18;1.90;;;31.50;76.30;;;;;;5077505;28;20381;-84
2023/01/11 03:25:39;;;;;;;4.28;1.70;;;31.10;76.40;;;;;;5085490;28;20408;-90
2023/01/11 03:28:33;;;;;;;4.20;1.70;;;31.00;76.20;;;;;;5072782;28;20376;-87
2023/01/11 03:31:06;;;;;;;4.72;1.70;;;31.10;77.30;;;;;;5084652;28;20384;-80
2023/01/11 03:33:39;;;;;;;13.38;2.20;;;30.70;77.00;;;;;;5091946;28;20899;-84
2023/01/11 03:36:07;;;;;;;5.03;1.70;;;30.60;77.70;;;;;;5087325;28;20433;-85
2023/01/11 03:38:45;;;;;;;5.50;1.75;;;30.70;78.10;;;;;;5078129;28;20921;-87
2023/01/11 03:41:20;;;;;;;6.22;1.70;;;30.60;77.60;;;;;;5076265;28;20386;-84
2023/01/11 03:43:50;;;;;;;6.40;1.80;;;30.70;77.20;;;;;;5081498;28;20752;-82
2023/01/11 03:46:25;;;;;;;7.70;1.60;;;30.90;76.70;;;;;;5073647;28;20385;-85
2023/01/11 03:49:18;;;;;;;5.72;1.67;;;30.80;76.30;;;;;;5074825;28;20410;-85
2023/01/11 03:51:46;;;;;;;4.95;1.80;;;30.60;77.30;;;;;;5070784;28;21202;-84
2023/01/11 03:54:23;;;;;;;5.88;1.70;;;30.60;77.60;;;;;;5075391;28;20423;-90
2023/01/11 03:57:06;;;;;;;5.35;1.70;;;30.70;78.30;;;;;;5072840;28;20391;-82
2023/01/11 03:59:34;;;;;;;4.95;1.70;;;31.00;77.70;;;;;;5079982;28;20474;-78
2023/01/11 04:02:01;;;;;;;6.50;1.80;;;31.00;77.20;;;;;;5077454;28;20439;-81
2023/01/11 04:04:28;;;;;;;6.40;1.80;;;30.80;77.20;;;;;;5076904;28;20535;-84
2023/01/11 04:06:55;;;;;;;3.63;1.65;;;30.60;77.20;;;;;;5071249;28;20450;-81
2023/01/11 04:09:22;;;;;;;4.72;1.70;;;30.50;77.20;;;;;;5074521;28;21026;-81
2023/01/11 04:11:49;;;;;;;4.40;1.70;;;30.60;77.70;;;;;;5067303;28;20382;-83
2023/01/11 04:14:16;;;;;;;4.87;1.60;;;31.00;77.70;;;;;;5084340;28;21005;-80
2023/01/11 04:16:43;;;;;;;5.00;1.90;;;31.50;76.30;;;;;;5090035;28;20483;-85
2023/01/11 04:19:10;;;;;;;7.70;1.70;;;31.50;75.40;;;;;;5090445;28;20867;-80
2023/01/11 04:21:37;;;;;;;5.90;1.73;;;31.20;75.70;;;;;;5090575;28;20380;-85
2023/01/11 04:24:04;;;;;;;7.15;1.60;;;30.80;76.90;;;;;;5072226;28;20425;-78
2023/01/11 04:26:31;;;;;;;5.80;1.90;;;30.60;77.20;;;;;;5086986;28;20425;-80
2023/01/11 04:28:59;;;;;;;5.72;1.98;;;30.60;77.70;;;;;;5082293;28;20386;-79
2023/01/11 04:31:26;;;;;;;5.00;1.80;;;31.90;76.10;;;;;;5079231;28;20910;-79
2023/01/11 04:33:53;;;;;;;5.70;1.73;;;32.80;72.40;;;;;;5083742;28;20394;-77
2023/01/11 04:36:20;;;;;;;5.35;1.60;;;32.60;73.20;;;;;;5086493;28;20891;-85
2023/01/11 04:38:46;;;;;;;6.60;1.90;;;32.00;72.10;;;;;;5069900;28;20386;-81
2023/01/11 04:43:58;;;;;;;5.88;1.88;;;31.90;72.10;;;;;;5077271;28;20441;-81
2023/01/11 04:46:25;;;;;;;5.22;1.75;;;32.10;72.80;;;;;;5087553;28;20727;-77
2023/01/11 04:48:55;;;;;;;5.05;1.63;;;32.30;73.30;;;;;;5070520;28;20382;-76
2023/01/11 04:51:22;;;;;;;7.07;1.60;;;32.90;71.80;;;;;;5070975;28;20479;-76
2023/01/11 04:53:49;;;;;;;4.18;1.70;;;33.20;70.00;;;;;;5070070;28;20404;-81
2023/01/11 04:56:16;;;;;;;3.90;1.77;;;32.70;70.10;;;;;;5070032;28;20739;-81
2023/01/11 04:58:44;;;;;;;6.65;1.95;;;32.00;71.60;;;;;;5069460;28;20750;-87
2023/01/11 05:01:18;;;;;;;5.70;2.00;;;31.80;72.90;;;;;;5067596;28;20386;-82
2023/01/11 05:03:45;;;;;;;5.80;1.70;;;31.90;72.70;;;;;;5062187;28;20381;-82
2023/01/11 05:06:13;;;;;;;7.17;1.80;;;32.30;71.80;;;;;;5070363;28;20413;-83
2023/01/11 05:08:45;;;;;;;6.80;1.90;;;32.00;70.30;;;;;;5070328;28;20382;-81
2023/01/11 05:11:12;;;;;;;4.93;1.80;;;31.10;72.10;;;;;;5079675;28;20377;-82
2023/01/11 05:13:42;;;;;;;6.25;1.80;;;31.10;74.40;;;;;;5069893;28;20599;-80
2023/01/11 05:16:24;;;;;;;11.15;1.95;;;32.30;72.10;;;;;;5079111;28;20374;-78
2023/01/11 05:18:58;;;;;;;6.80;1.80;;;33.90;70.50;;;;;;5078271;28;20374;-80
2023/01/11 05:21:30;;;;;;;5.63;1.90;;;34.70;67.00;;;;;;5083476;28;20399;-81
2023/01/11 05:23:59;;;;;;;3.70;1.77;;;34.50;66.80;;;;;;5070810;28;20362;-83
2023/01/11 05:26:29;;;;;;;5.57;1.80;;;33.90;67.00;;;;;;5081108;28;20381;-80
2023/01/11 05:28:58;;;;;;;5.20;1.90;;;33.30;67.50;;;;;;5078057;28;20873;-82
2023/01/11 05:31:28;;;;;;;8.35;2.00;;;32.60;68.20;;;;;;5079197;28;20479;-84
2023/01/11 05:33:59;;;;;;;4.53;1.67;;;32.20;69.60;;;;;;5078503;28;20401;-79
2023/01/11 05:36:27;;;;;;;4.22;1.80;;;31.90;69.70;;;;;;5077939;28;20393;-82
2023/01/11 05:38:56;;;;;;;6.00;1.90;;;31.30;70.20;;;;;;5079663;28;20372;-86
2023/01/11 05:41:25;;;;;;;6.63;1.90;;;30.90;71.20;;;;;;5071976;28;20404;-81
2023/01/11 05:46:40;;;;;;;4.82;1.65;;;32.10;70.30;;;;;;5067785;28;20389;-83
2023/01/11 05:49:08;;;;;;;5.32;1.80;;;33.60;67.90;;;;;;5077559;28;20386;-82
2023/01/11 05:51:36;;;;;;;6.75;1.70;;;34.70;65.40;;;;;;5072539;28;20413;-82
2023/01/11 05:54:06;;;;;;;7.20;1.90;;;35.90;62.40;;;;;;5068743;28;20497;-84
2023/01/11 05:56:32;;;;;;;4.88;1.70;;;35.90;62.90;;;;;;5068592;28;20630;-81
2023/01/11 05:59:00;;;;;;;5.78;1.95;;;36.50;62.20;;;;;;5077516;28;20384;-79
2023/01/11 06:01:27;;;;;;;5.60;1.65;;;36.50;62.00;;;;;;5074654;28;20382;-81
2023/01/11 06:03:53;;;;;;;4.07;1.60;;;36.70;60.10;;;;;;5069974;28;20753;-82
2023/01/11 06:06:21;;;;;;;5.53;1.90;;;35.70;61.40;;;;;;5045706;28;20387;-84
2023/01/11 06:08:48;;;;;;;4.63;1.90;;;34.40;62.00;;;;;;5061475;28;20396;-84
2023/01/11 06:11:15;;;;;;;6.93;2.03;;;33.30;63.60;;;;;;5074252;28;20412;-85
2023/01/11 06:13:43;;;;;;;4.20;1.70;;;32.20;66.50;;;;;;5072008;28;20406;-84
2023/01/11 06:16:15;;;;;;;3.92;1.70;;;32.40;66.60;;;;;;5072483;28;20382;-84
2023/01/11 06:18:46;;;;;;;4.90;1.80;;;33.40;66.10;;;;;;5069924;28;20457;-82
2023/01/11 06:21:14;;;;;;;4.72;1.80;;;33.50;64.00;;;;;;5073424;28;20415;-80
2023/01/11 06:23:46;;;;;;;4.97;1.92;;;33.20;64.60;;;;;;5069851;28;20448;-81
2023/01/11 06:26:15;;;;;;;7.35;1.80;;;32.60;65.90;;;;;;5064265;28;20382;-86
2023/01/11 06:28:43;;;;;;;5.25;1.80;;;32.40;66.90;;;;;;5073782;28;20408;-85
2023/01/11 06:31:10;;;;;;;6.93;1.90;;;33.00;66.10;;;;;;5071832;28;20406;-84
2023/01/11 06:33:39;;;;;;;13.87;2.20;;;33.80;63.60;;;;;;5070291;28;20426;-85
2023/01/11 06:36:09;;;;;;;13.53;2.13;;;34.50;62.40;;;;;;5073527;28;20907;-85
2023/01/11 06:38:36;;;;;;;81.60;7.18;;;35.20;61.80;;;;;;5064013;28;20374;-86
2023/01/11 06:41:07;;;;;;;8.88;1.90;;;35.40;61.20;;;;;;5069667;28;20485;-87
2023/01/11 06:43:36;;;;;;;19.98;2.70;;;35.60;60.50;;;;;;5071225;28;20393;-85
2023/01/11 06:46:03;;;;;;;5.05;1.60;;;35.70;60.90;;;;;;5075496;28;20413;-79
2023/01/11 06:48:30;;;;;;;4.35;1.73;;;35.00;60.60;;;;;;5069951;28;20378;-82
2023/01/11 06:50:58;;;;;;;3.75;1.73;;;34.00;62.10;;;;;;5073275;28;20727;-81
2023/01/11 06:53:26;;;;;;;4.75;2.30;;;33.20;63.10;;;;;;5071347;28;20461;-77
2023/01/11 06:55:55;;;;;;;6.43;2.17;;;32.50;65.10;;;;;;5068144;28;20379;-82
2023/01/11 06:58:23;;;;;;;6.10;2.40;;;31.80;66.40;;;;;;5058139;28;20387;-77
2023/01/11 07:00:52;;;;;;;4.57;1.93;;;31.20;67.50;;;;;;5050448;28;20747;-83
2023/01/11 07:03:19;;;;;;;3.72;1.95;;;30.70;68.80;;;;;;5061939;28;20811;-84
2023/01/11 07:05:47;;;;;;;5.07;2.08;;;30.30;70.10;;;;;;5059069;28;20386;-86
2023/01/11 07:08:13;;;;;;;4.30;1.95;;;30.10;70.20;;;;;;5062642;28;20743;-80
2023/01/11 07:10:42;;;;;;;5.60;2.10;;;29.80;71.00;;;;;;5063523;28;20394;-78
2023/01/11 07:13:11;;;;;;;8.80;2.30;;;30.20;70.70;;;;;;5059171;28;21187;-82
2023/01/11 07:15:38;;;;;;;8.50;2.33;;;30.70;69.50;;;;;;5063462;28;20402;-86
2023/01/11 07:18:05;;;;;;;6.70;2.50;;;31.30;69.10;;;;;;5061525;28;20426;-79
2023/01/11 07:20:32;;;;;;;10.68;7.25;;;31.70;68.00;;;;;;5061876;28;20387;-79
2023/01/11 07:23:00;;;;;;;19.20;9.93;;;32.20;67.20;;;;;;5065864;28;20376;-78
2023/01/11 07:25:29;;;;;;;15.90;8.85;;;32.20;66.10;;;;;;5068338;28;20390;-80
2023/01/11 07:27:58;;;;;;;19.40;10.85;;;31.70;66.50;;;;;;5074444;28;20390;-80
2023/01/11 07:30:25;;;;;;;7.93;3.13;;;31.50;67.80;;;;;;5073021;28;20394;-83
2023/01/11 07:32:53;;;;;;;6.65;2.30;;;31.40;68.40;;;;;;5076910;28;20427;-78
2023/01/11 07:35:20;;;;;;;4.70;2.00;;;31.50;68.00;;;;;;5078990;28;20493;-80
2023/01/11 07:37:47;;;;;;;4.20;1.85;;;31.50;67.00;;;;;;5077306;28;20399;-79
2023/01/11 07:40:16;;;;;;;4.93;2.90;;;30.90;67.90;;;;;;5081045;28;20390;-79
2023/01/11 07:45:38;;;;;;;3.80;2.00;;;29.50;70.80;;;;;;5067553;28;20396;-79
2023/01/11 07:48:07;;;;;;;5.22;2.00;;;28.90;72.30;;;;;;5081672;28;20374;-86
2023/01/11 07:50:34;;;;;;;5.97;1.98;;;29.00;73.10;;;;;;5087122;28;20384;-83
2023/01/11 07:53:01;;;;;;;6.00;2.10;;;29.30;72.30;;;;;;5080774;28;20401;-83
2023/01/11 07:55:28;;;;;;;5.07;2.13;;;29.60;71.30;;;;;;5090274;28;20472;-85
2023/01/11 07:57:57;;;;;;;4.73;2.07;;;29.80;70.90;;;;;;5091096;28;20374;-83
2023/01/11 08:00:25;;;;;;;5.05;2.08;;;29.60;70.70;;;;;;5075562;28;20398;-85
2023/01/11 08:02:52;;;;;;;6.20;2.10;;;29.00;71.90;;;;;;5085946;28;20387;-88
2023/01/11 08:05:20;;;;;;;4.03;2.00;;;28.60;73.20;;;;;;5092658;28;20356;-82
2023/01/11 08:07:47;;;;;;;5.55;2.17;;;28.50;73.90;;;;;;5081513;28;20398;-88
2023/01/11 08:10:15;;;;;;;4.88;2.10;;;28.60;73.90;;;;;;5089015;28;20381;-87
2023/01/11 08:15:28;;;;;;;6.53;2.10;;;28.10;74.30;;;;;;5068909;28;20406;-85
2023/01/11 08:17:55;;;;;;;5.60;2.30;;;27.70;75.20;;;;;;5071452;28;20378;-86
2023/01/11 08:20:22;;;;;;;3.88;2.10;;;27.30;76.70;;;;;;5072162;28;20412;-90
2023/01/11 08:22:49;;;;;;;5.90;2.10;;;26.90;77.50;;;;;;5071680;28;20382;-84
2023/01/11 08:25:16;;;;;;;5.15;2.17;;;26.70;78.40;;;;;;5083103;28;20364;-86
2023/01/11 08:27:44;;;;;;;4.18;1.98;;;26.30;79.20;;;;;;5076434;28;20386;-87
2023/01/11 08:30:11;;;;;;;7.82;2.30;;;26.30;80.10;;;;;;5084921;28;20403;-88
2023/01/11 08:32:38;;;;;;;5.30;2.30;;;26.10;80.00;;;;;;5073178;28;20782;-91
2023/01/11 08:35:06;;;;;;;4.78;2.00;;;25.90;81.00;;;;;;5071649;28;20490;-85
2023/01/11 08:37:33;;;;;;;5.15;2.00;;;25.80;81.70;;;;;;5063744;28;20881;-88
2023/01/11 08:40:00;;;;;;;5.63;2.20;;;25.70;82.10;;;;;;5066303;28;20450;-77
2023/01/11 08:42:27;;;;;;;5.80;2.20;;;25.70;82.40;;;;;;5060540;28;20386;-88
2023/01/11 08:44:54;;;;;;;5.68;2.17;;;25.60;82.90;;;;;;5056604;28;20376;-83
2023/01/11 08:47:21;;;;;;;7.50;2.58;;;25.50;83.10;;;;;;5051654;28;20934;-82
2023/01/11 08:49:48;;;;;;;5.38;2.30;;;25.40;83.70;;;;;;5060141;28;20420;-84
2023/01/11 08:52:15;;;;;;;4.00;2.00;;;25.30;84.10;;;;;;5061302;28;20470;-90
2023/01/11 08:54:43;;;;;;;5.85;2.30;;;25.30;85.30;;;;;;5060966;28;20518;-80
2023/01/11 08:57:10;;;;;;;4.68;2.22;;;25.20;86.30;;;;;;5063750;28;20376;-81
2023/01/11 08:59:37;;;;;;;5.30;2.28;;;25.10;87.00;;;;;;5056479;28;20474;-79
2023/01/11 09:02:05;;;;;;;4.32;2.13;;;24.90;88.70;;;;;;5060490;28;20803;-84
2023/01/11 09:04:32;;;;;;;6.18;2.22;;;24.90;90.00;;;;;;5066589;28;20416;-85
2023/01/11 09:07:00;;;;;;;6.57;2.60;;;24.80;90.30;;;;;;5062834;28;20402;-77
2023/01/11 09:09:27;;;;;;;6.97;2.30;;;24.70;90.50;;;;;;5055204;28;20897;-86
2023/01/11 09:12:01;;;;;;;6.30;2.28;;;24.70;90.70;;;;;;5051121;28;20436;-78
2023/01/11 09:14:28;;;;;;;5.00;2.10;;;24.50;91.20;;;;;;5055004;28;20390;-79
2023/01/11 09:16:56;;;;;;;6.57;2.33;;;24.50;91.70;;;;;;5052882;28;20426;-80
2023/01/11 09:19:23;;;;;;;5.32;2.20;;;24.30;92.00;;;;;;5048132;28;20378;-79
2023/01/11 09:21:50;;;;;;;7.53;2.35;;;24.30;92.30;;;;;;5054468;28;20399;-86
2023/01/11 09:24:18;;;;;;;5.63;2.13;;;24.20;92.40;;;;;;5056256;28;20872;-82
2023/01/11 09:26:45;;;;;;;5.95;2.30;;;24.20;92.50;;;;;;5049912;28;20394;-83
2023/01/11 09:29:12;;;;;;;6.80;2.40;;;24.20;92.80;;;;;;5055991;28;20372;-84
2023/01/11 09:31:40;;;;;;;5.85;2.40;;;24.00;93.00;;;;;;5050460;28;20408;-78
2023/01/11 09:34:09;;;;;;;5.87;2.40;;;24.00;93.40;;;;;;5051212;28;20402;-86
2023/01/11 09:36:38;;;;;;;7.80;2.33;;;24.00;93.20;;;;;;5050183;28;20372;-85
2023/01/11 09:39:10;;;;;;;4.28;2.22;;;23.90;93.50;;;;;;5059981;28;20388;-82
2023/01/11 09:41:48;;;;;;;5.68;2.30;;;23.90;93.80;;;;;;5058199;28;20374;-82
2023/01/11 09:44:24;;;;;;;5.40;2.30;;;23.80;93.90;;;;;;5049932;28;20513;-88
2023/01/11 09:47:24;;;;;;;5.97;2.30;;;23.70;94.30;;;;;;5050171;28;20908;-83
2023/01/11 09:49:56;;;;;;;6.68;2.58;;;23.70;94.40;;;;;;5064050;28;20421;-88
2023/01/11 09:52:35;;;;;;;3.90;2.40;;;23.70;94.50;;;;;;5060556;28;20386;-86
2023/01/11 09:55:03;;;;;;;6.28;2.40;;;23.70;94.50;;;;;;5056877;28;20411;-88
2023/01/11 09:57:50;;;;;;;5.43;2.53;;;23.60;94.40;;;;;;5052562;28;20798;-78
2023/01/11 10:00:26;;;;;;;4.78;2.10;;;23.60;94.50;;;;;;5058654;28;20388;-89
2023/01/11 10:03:09;;;;;;;6.72;2.25;;;23.70;94.60;;;;;;5053187;28;20375;-79
2023/01/11 10:06:07;;;;;;;4.53;2.28;;;23.70;94.40;;;;;;5058757;28;20390;-82
2023/01/11 10:09:02;;;;;;;6.65;2.20;;;23.70;94.50;;;;;;5099370;28;20767;-88
2023/01/11 10:12:07;;;;;;;5.60;2.28;;;23.70;94.50;;;;;;5071809;28;20467;-82
2023/01/11 10:14:58;;;;;;;7.85;2.40;;;23.60;94.60;;;;;;5073673;28;20828;-82
2023/01/11 10:17:50;;;;;;;7.00;2.60;;;23.50;94.80;;;;;;5070027;28;20382;-83
2023/01/11 10:20:27;;;;;;;4.93;2.25;;;23.50;95.00;;;;;;5071136;28;20380;-83
2023/01/11 10:23:19;;;;;;;7.23;2.60;;;23.50;95.20;;;;;;5083125;28;20369;-85
2023/01/11 10:25:50;;;;;;;5.28;2.35;;;23.40;95.40;;;;;;5057373;28;20381;-83
2023/01/11 10:28:34;;;;;;;7.45;2.42;;;23.30;95.70;;;;;;5060900;28;20390;-82
2023/01/11 10:42:48;;;;;;;7.25;2.30;;;23.20;97.10;;;;;;5044964;28;20388;-82
2023/01/11 10:45:54;;;;;;;6.60;2.40;;;23.20;97.20;;;;;;5032527;28;20412;-83
2023/01/11 10:48:31;;;;;;;5.40;2.28;;;23.20;97.40;;;;;;5049984;28;20407;-82
2023/01/11 10:51:30;;;;;;;5.00;2.20;;;23.20;97.80;;;;;;5043370;28;20420;-81
2023/01/11 10:54:12;;;;;;;6.85;2.30;;;23.20;98.00;;;;;;5030521;28;20392;-82
2023/01/11 10:57:06;;;;;;;7.15;2.60;;;23.10;98.20;;;;;;5037770;28;20395;-81
2023/01/11 10:59:55;;;;;;;6.32;2.40;;;23.10;98.50;;;;;;5027943;28;20416;-82
2023/01/11 11:02:37;;;;;;;6.82;2.20;;;23.10;98.80;;;;;;5030991;28;20378;-81
2023/01/11 11:05:33;;;;;;;6.78;2.45;;;23.00;99.20;;;;;;5030995;28;20373;-81
2023/01/11 11:08:12;;;;;;;7.20;2.40;;;23.00;99.50;;;;;;5028092;28;20385;-83
2023/01/11 11:10:59;;;;;;;8.15;2.60;;;23.00;99.70;;;;;;5065822;28;20385;-81
2023/01/11 11:13:52;;;;;;;10.02;2.40;;;23.10;99.80;;;;;;5064573;28;20465;-83
2023/01/11 11:16:22;;;;;;;6.05;2.22;;;23.10;99.90;;;;;;5059481;28;20418;-81
2023/01/11 11:18:51;;;;;;;5.07;2.15;;;23.10;99.90;;;;;;5070870;28;20877;-83
2023/01/11 11:21:33;;;;;;;8.05;2.30;;;23.10;99.90;;;;;;5072684;28;20408;-83
2023/01/11 11:24:16;;;;;;;6.90;2.50;;;23.10;99.90;;;;;;5072817;28;20381;-82
2023/01/11 11:26:51;;;;;;;6.23;2.13;;;23.10;99.90;;;;;;5072440;28;20806;-83
2023/01/11 11:29:28;;;;;;;6.53;2.25;;;23.10;99.90;;;;;;5072908;28;20386;-83
2023/01/11 11:31:57;;;;;;;8.25;2.40;;;23.00;99.90;;;;;;5075742;28;20392;-83
2023/01/11 11:34:26;;;;;;;6.75;2.20;;;23.00;99.90;;;;;;5079625;28;20390;-83
2023/01/11 11:36:57;;;;;;;6.72;2.40;;;22.90;99.90;;;;;;5072269;28;20390;-83
2023/01/11 11:39:29;;;;;;;7.40;2.40;;;22.90;99.90;;;;;;5085980;28;20485;-82
2023/01/11 11:42:14;;;;;;;7.30;2.40;;;23.00;99.90;;;;;;5073332;28;20375;-80
2023/01/11 11:44:41;;;;;;;8.63;2.33;;;22.90;99.90;;;;;;5072370;28;20373;-82
2023/01/11 11:47:17;;;;;;;7.40;2.43;;;22.90;99.90;;;;;;5075313;28;20946;-84
2023/01/11 11:49:45;;;;;;;8.77;2.20;;;22.80;99.90;;;;;;5091739;28;20395;-81
2023/01/11 11:52:17;;;;;;;8.55;2.30;;;22.80;99.90;;;;;;5085684;28;20457;-84
2023/01/11 11:54:55;;;;;;;9.13;2.25;;;22.80;99.90;;;;;;5070628;28;20402;-82
2023/01/11 11:57:23;;;;;;;8.18;2.35;;;22.90;99.90;;;;;;5073059;28;20547;-83
2023/01/11 12:00:06;;;;;;;8.00;2.30;;;22.90;99.90;;;;;;5071680;28;20892;-82
2023/01/11 12:02:37;;;;;;;6.85;2.20;;;22.90;99.90;;;;;;5074965;28;20386;-84
2023/01/11 12:05:08;;;;;;;8.15;2.20;;;22.80;99.90;;;;;;5070567;28;20405;-81
2023/01/11 12:07:44;;;;;;;7.47;2.47;;;22.90;99.90;;;;;;5071462;28;20477;-83
2023/01/11 12:10:24;;;;;;;7.35;2.15;;;22.80;99.90;;;;;;5071182;28;20370;-81
2023/01/11 12:12:58;;;;;;;6.57;2.30;;;22.80;99.90;;;;;;5073296;28;20366;-82
2023/01/11 12:15:34;;;;;;;6.75;2.25;;;22.80;99.90;;;;;;5082527;28;20908;-83
2023/01/11 12:18:40;;;;;;;7.45;2.25;;;22.70;99.90;;;;;;5074763;28;20394;-83
2023/01/11 12:21:29;;;;;;;8.37;2.40;;;22.70;99.90;;;;;;5035754;28;20423;-83
2023/01/11 12:24:12;;;;;;;7.82;2.25;;;22.70;99.90;;;;;;5036443;28;20878;-83
2023/01/11 12:27:16;;;;;;;9.23;2.40;;;22.70;99.90;;;;;;5029241;28;20378;-82
2023/01/11 12:29:45;;;;;;;7.55;2.40;;;22.60;99.90;;;;;;5016657;28;20396;-82
2023/01/11 12:32:38;;;;;;;8.17;2.50;;;22.70;99.90;;;;;;5028724;28;20431;-85
2023/01/11 12:35:25;;;;;;;8.77;2.45;;;22.70;99.90;;;;;;5048607;28;20416;-81
2023/01/11 12:38:04;;;;;;;8.27;2.42;;;22.60;99.90;;;;;;5029101;28;20370;-83
2023/01/11 12:40:33;;;;;;;6.85;2.55;;;22.60;99.90;;;;;;5034965;28;20397;-82
2023/01/11 12:43:23;;;;;;;8.98;2.22;;;22.60;99.90;;;;;;5039410;28;20378;-82
2023/01/11 12:46:20;;;;;;;8.52;2.30;;;22.50;99.90;;;;;;5041247;28;20378;-82
2023/01/11 12:49:32;;;;;;;6.00;2.30;;;22.50;99.90;;;;;;5044344;28;20387;-82
2023/01/11 12:52:34;;;;;;;7.88;2.35;;;22.50;99.90;;;;;;5031644;28;20373;-83
2023/01/11 12:55:38;;;;;;;8.40;2.28;;;22.50;99.90;;;;;;4994469;28;20414;-82
2023/01/11 12:58:07;;;;;;;9.20;2.63;;;22.50;99.90;;;;;;5061897;28;20882;-83
2023/01/11 13:00:52;;;;;;;9.27;2.58;;;22.40;99.90;;;;;;5068893;28;20404;-83
2023/01/11 13:03:40;;;;;;;8.85;2.60;;;22.40;99.90;;;;;;5073556;28;20382;-82
2023/01/11 13:06:34;;;;;;;9.30;2.65;;;22.30;99.90;;;;;;5078537;28;20919;-82
2023/01/11 13:09:25;;;;;;;7.85;2.35;;;22.40;99.90;;;;;;5070120;28;20425;-83
2023/01/11 13:12:03;;;;;;;12.60;2.50;;;22.40;99.90;;;;;;5091676;28;20425;-82
2023/01/11 13:14:51;;;;;;;10.38;2.45;;;22.40;99.90;;;;;;5088856;28;20780;-81
2023/01/11 13:17:40;;;;;;;7.55;2.22;;;22.30;99.90;;;;;;5081774;28;20402;-81
2023/01/11 13:20:16;;;;;;;8.88;2.47;;;22.30;99.90;;;;;;5083731;28;20370;-81
2023/01/11 13:22:58;;;;;;;8.52;2.50;;;22.30;99.90;;;;;;5072311;28;20425;-83
2023/01/11 13:25:28;;;;;;;9.90;2.55;;;22.30;99.90;;;;;;5079594;28;20715;-82
2023/01/11 13:27:58;;;;;;;8.35;2.60;;;22.30;99.90;;;;;;5070247;28;20469;-83
2023/01/11 13:30:26;;;;;;;8.35;2.60;;;22.20;99.90;;;;;;5082314;28;20386;-81
2023/01/11 13:33:11;;;;;;;9.07;2.65;;;22.20;99.90;;;;;;5084987;28;20400;-84
2023/01/11 13:35:55;;;;;;;8.63;2.55;;;22.30;99.90;;;;;;5081780;28;20492;-81
2023/01/11 13:38:53;;;;;;;7.82;2.40;;;22.30;99.90;;;;;;5090206;28;20376;-81
2023/01/11 13:41:27;;;;;;;10.10;2.92;;;22.30;99.90;;;;;;5099386;27;20462;-83
2023/01/11 13:44:12;;;;;;;8.40;2.40;;;22.30;99.90;;;;;;5089367;28;20378;-81
2023/01/11 13:47:06;;;;;;;9.50;2.60;;;22.30;99.90;;;;;;5089333;28;20453;-82
2023/01/11 13:49:56;;;;;;;9.70;2.60;;;22.30;99.90;;;;;;5046176;28;20417;-82
2023/01/11 13:52:49;;;;;;;9.40;2.40;;;22.40;99.90;;;;;;5039540;28;20390;-81
2023/01/11 13:55:27;;;;;;;10.45;2.50;;;22.40;99.90;;;;;;4949159;28;20829;-81
2023/01/11 13:58:27;;;;;;;10.00;2.40;;;22.30;99.90;;;;;;4956424;28;20424;-82
2023/01/11 14:01:17;;;;;;;8.20;2.42;;;22.30;99.90;;;;;;4959310;28;20391;-83